Terminal Aerodrome Forecast
Issued by NWS

Home | Current Version | Previous Version | Text Only | Print | Product List | Glossary On
Versions: 1 2 3 4 5 6 7 8 9 10 11 12 13
151
FTUS45 KRIW 212320
TAFBPI
TAF
KBPI 212320Z 2200/2224 28013G22KT P6SM FEW100
     FM220100 33008KT P6SM FEW110
     FM220600 VRB05KT P6SM SKC
     FM221800 27011KT P6SM SKC
     FM222000 30014G24KT P6SM FEW110=

USA.gov is the U.S. government's official web portal to all federal, state and local government web resources and services.